Latest Coastal Weather Observations for Low Rocky Point

IDT60701

Issued at 4:55 am EDT Tuesday 25 November 2014 (issued every 10 minutes, with the page automatically refreshed every 10 minutes)

About coastal observations | Map of coastal stations | Coastal observations for TAS | Marine services | Other Formats
Station Details ID: 097080 Name: LOW ROCKY POINT Lat: -42.98 Lon: 145.50 Height: 34.0 m
Data from the previous 72 hours. | See also: Recent months at Low Rocky Point
Date/Time
EDT
Temp

°C
Wind Pressure Rain
since 9am
mm
Weather Cloud Vis
km
Sea
Height
m
Swell
Dir
 
Speed
knots
Gust
knots
hPa Trend Height
m
Period
s
Dir
25/04:30am 11.3 W 25 34 1004.6 - 10.2 - - - - - - -
25/04:09am 11.2 W 24 37 1004.4 - 9.8 - - - - - - -
25/04:00am 11.0 W 25 32 1004.3 - 9.8 - - - - - - -
25/03:30am 11.6 W 27 34 1004.0 - 9.8 - - - - - - -
25/03:00am 11.5 W 29 41 1004.0 - 9.8 - - - - - - -
25/02:58am 11.6 W 29 41 1004.0 - 9.8 - - - - - - -
25/02:30am 12.0 WNW 27 33 1003.9 - 9.8 - - - - - - -
25/02:00am 11.8 WNW 26 31 1003.7 - 9.8 - - - - - - -
25/01:30am 11.7 WNW 29 36 1003.6 - 9.8 - - - - - - -
25/01:16am 11.3 WNW 24 34 1003.8 - 9.8 - - - - - - -
25/01:00am 11.9 WNW 30 37 1003.5 - 9.8 - - - - - - -
25/12:30am 11.9 WNW 28 34 1003.5 - 9.8 - - - - - - -
25/12:00am 11.7 WNW 31 37 1003.4 - 9.8 Recent precip. - - - - - -
 
Date/Time
EDT
Temp

°C
Wind Pressure Rain
since 9am
mm
Weather Cloud Vis
km
Sea
Height
m
Swell
Dir
 
Speed
knots
Gust
knots
hPa Trend Height
m
Period
s
Dir
24/11:30pm 11.4 NW 27 36 1003.3 - 9.8 - - - - - - -
24/11:27pm 11.3 NW 25 36 1003.3 - 9.8 - - - - - - -
24/11:00pm 11.6 NW 27 33 1003.4 - 9.4 - - - - - - -
24/10:30pm 10.3 NW 28 40 1003.7 - 9.0 - - - - - - -
24/10:26pm 11.2 NW 25 40 1003.7 - 9.0 - - - - - - -
24/10:00pm 12.0 NW 23 30 1003.8 - 8.6 - - - - - - -
24/09:30pm 12.4 WNW 22 27 1003.7 - 8.6 - - - - - - -
24/09:00pm 11.8 WNW 24 30 1003.8 - 8.6 - - - - - - -
24/08:30pm 12.4 NW 22 28 1003.5 - 8.6 - - - - - - -
24/08:00pm 12.4 NW 22 27 1003.4 - 8.6 - - - - - - -
24/07:30pm 12.6 NW 21 25 1003.4 - 8.6 - - - - - - -
24/07:00pm 12.9 NW 20 27 1003.2 - 8.6 - - - - - - -
24/06:30pm 12.6 NW 21 26 1003.1 - 8.6 - - - - - - -
24/06:00pm 12.9 NW 21 25 1003.3 - 8.6 - - - - - - -
24/05:30pm 12.0 NW 18 23 1003.2 - 8.6 - - - - - - -
24/05:00pm 11.4 NW 18 23 1003.4 - 8.6 - - - - - - -
24/04:30pm 11.4 NW 18 23 1003.5 - 8.6 - - - - - - -
24/04:00pm 11.0 NW 16 20 1003.6 - 8.6 - - - - - - -
24/03:30pm 10.6 WNW 19 24 1003.7 - 7.8 - - - - - - -
24/03:00pm 10.9 W 22 27 1004.1 - 7.0 Rain - - - - - -
24/02:49pm 11.3 WNW 25 29 1004.2 - 5.0 - - - - - - -
24/02:47pm 12.6 NNW 19 33 1004.0 - 4.4 - - - - - - -
24/02:30pm 12.8 NNW 18 23 1003.9 - 3.6 - - - - - - -
24/02:00pm 12.8 NNW 18 23 1004.4 - 2.0 - - - - - - -
24/01:30pm 13.1 NNW 21 29 1004.5 - 1.0 - - - - - - -
24/01:00pm 13.6 NNW 20 29 1004.6 - 0.6 - - - - - - -
24/12:56pm 13.6 NNW 19 29 1004.7 - 0.6 - - - - - - -
24/12:30pm 13.7 NNW 19 27 1004.9 - 0.6 - - - - - - -
24/12:04pm 13.5 NNW 18 30 1005.4 - 0.6 - - - - - - -
24/12:00pm 13.5 NNW 18 26 1005.5 - 0.6 - - - - - - -
24/11:30am 13.3 NNW 18 25 1005.9 - 0.6 - - - - - - -
24/11:00am 12.7 N 15 23 1006.2 - 0.6 - - - - - - -
24/10:30am 12.8 N 16 23 1006.7 - 0.2 - - - - - - -
24/10:00am 14.9 NNW 21 31 1006.9 - 0.0 - - - - - - -
24/09:54am 15.2 NNW 19 31 1006.8 - 0.0 - - - - - - -
24/09:30am 15.8 NNW 19 24 1006.9 - 0.0 - - - - - - -
24/09:19am 15.8 NNW 17 27 1006.9 - 0.0 - - - - - - -
24/09:00am 15.7 NNW 16 22 1006.8 - 0.2 - - - - - - -
24/08:30am 15.1 N 14 19 1007.0 - 0.2 - - - - - - -
24/08:00am 14.0 N 10 13 1007.3 - 0.2 - - - - - - -
24/07:30am 12.6 N 10 13 1007.5 - 0.2 - - - - - - -
24/07:00am 12.0 N 11 14 1007.5 - 0.2 - - - - - - -
24/06:30am 10.4 N 12 14 1007.9 - 0.2 - - - - - - -
24/06:00am 10.4 N 10 13 1008.1 - 0.2 - - - - - - -
24/05:30am 9.4 N 11 13 1008.4 - 0.2 - - - - - - -
24/05:00am 9.4 N 11 13 1008.5 - 0.2 - - - - - - -
24/04:30am 9.3 N 12 15 1008.3 - 0.2 - - - - - - -
24/04:00am 9.6 N 13 15 1008.3 - 0.2 - - - - - - -
24/03:30am 9.6 N 12 14 1008.7 - 0.2 - - - - - - -
24/03:00am 10.3 N 13 15 1009.3 - 0.2 - - - - - - -
24/02:30am 10.2 N 13 16 1009.4 - 0.2 - - - - - - -
24/02:00am 10.3 N 12 14 1009.6 - 0.2 - - - - - - -
24/01:30am 10.7 N 12 14 1009.8 - 0.2 - - - - - - -
24/01:00am 10.9 N 11 14 1010.2 - 0.2 - - - - - - -
24/12:30am 11.2 N 12 14 1010.5 - 0.2 - - - - - - -
24/12:00am 11.0 N 11 13 1010.9 - 0.2 - - - - - - -
 
Date/Time
EDT
Temp

°C
Wind Pressure Rain
since 9am
mm
Weather Cloud Vis
km
Sea
Height
m
Swell
Dir
 
Speed
knots
Gust
knots
hPa Trend Height
m
Period
s
Dir
23/11:30pm 11.7 N 11 14 1011.1 - 0.2 - - - - - - -
23/11:00pm 12.3 N 11 14 1011.3 - 0.2 - - - - - - -
23/10:30pm 13.2 N 11 15 1011.7 - 0.2 - - - - - - -
23/10:00pm 14.0 N 13 18 1011.8 - 0.2 - - - - - - -
23/09:30pm 14.0 NNW 14 19 1011.5 - 0.2 - - - - - - -
23/09:00pm 14.1 NNW 14 19 1011.5 - 0.2 - - - - - - -
23/08:30pm 14.1 NNW 14 19 1011.4 - 0.2 - - - - - - -
23/08:00pm 14.2 NNW 15 20 1011.6 - 0.2 - - - - - - -
23/07:30pm 14.2 NNW 19 26 1011.3 - 0.2 - - - - - - -
23/07:00pm 14.9 NNW 18 23 1011.1 - 0.2 - - - - - - -
23/06:30pm 15.2 NNW 21 25 1011.0 - 0.2 - - - - - - -
23/06:00pm 15.5 NNW 20 25 1010.9 - 0.2 - - - - - - -
23/05:30pm 15.5 NNW 19 24 1010.6 - 0.2 - - - - - - -
23/05:00pm 15.8 NNW 21 24 1010.4 - 0.2 - - - - - - -
23/04:30pm 16.0 NNW 18 21 1010.2 - 0.2 - - - - - - -
23/04:00pm 16.3 NNW 17 21 1010.2 - 0.2 - - - - - - -
23/03:30pm 16.2 NNW 19 23 1010.3 - 0.2 - - - - - - -
23/03:00pm 16.2 NW 20 24 1010.5 - 0.2 - - - - - - -
23/02:30pm 16.1 NW 22 27 1010.6 - 0.2 - - - - - - -
23/02:00pm 15.8 NNW 23 27 1010.4 - 0.2 - - - - - - -
23/01:30pm 16.2 NW 22 27 1010.4 - 0.2 - - - - - - -
23/01:00pm 15.3 NW 21 25 1010.4 - 0.2 - - - - - - -
23/12:30pm 16.5 NW 20 25 1010.3 - 0.2 - - - - - - -
23/12:00pm 15.9 NW 21 26 1010.4 - 0.2 - - - - - - -
23/11:30am 15.7 NW 21 25 1010.3 - 0.2 - - - - - - -
23/11:00am 15.8 NW 19 24 1010.2 - 0.2 - - - - - - -
23/10:30am 15.0 NW 19 22 1010.1 - 0.0 - - - - - - -
23/10:00am 14.2 NW 19 23 1010.0 - 0.0 - - - - - - -
23/09:30am 14.5 NW 20 24 1009.7 - 0.0 - - - - - - -
23/09:00am 13.5 NW 17 22 1009.6 - 1.6 - - - - - - -
23/08:30am 13.4 NW 17 21 1009.0 - 1.6 - - - - - - -
23/08:00am 13.4 NW 17 20 1008.6 - 1.6 - - - - - - -
23/07:30am 12.9 NW 18 22 1008.3 - 1.6 - - - - - - -
23/07:00am 12.4 WNW 18 21 1008.0 - 1.6 - - - - - - -
23/06:30am 12.3 WNW 17 22 1007.6 - 1.6 - - - - - - -
23/06:00am 12.2 WNW 18 22 1006.9 - 1.6 - - - - - - -
23/05:30am 12.3 WNW 19 23 1006.5 - 1.6 - - - - - - -
23/05:00am 12.5 WNW 19 23 1006.3 - 1.6 - - - - - - -
23/04:30am 12.9 NW 17 20 1006.0 - 1.6 - - - - - - -
23/04:00am 12.8 NW 16 21 1005.6 - 1.6 - - - - - - -
23/03:30am 12.8 NW 18 23 1005.5 - 1.6 - - - - - - -
23/03:00am 12.9 NW 17 21 1005.5 - 1.6 - - - - - - -
23/02:30am 12.9 NW 17 22 1005.4 - 1.6 - - - - - - -
23/02:00am 13.0 WNW 16 19 1005.4 - 1.6 - - - - - - -
23/01:30am 13.2 WNW 18 21 1005.2 - 1.6 - - - - - - -
23/01:00am 13.5 NW 16 19 1005.0 - 1.6 - - - - - - -
23/12:30am 13.6 NW 15 19 1004.8 - 1.6 - - - - - - -
23/12:00am 13.8 NW 16 18 1004.6 - 1.6 - - - - - - -
 
Date/Time
EDT
Temp

°C
Wind Pressure Rain
since 9am
mm
Weather Cloud Vis
km
Sea
Height
m
Swell
Dir
 
Speed
knots
Gust
knots
hPa Trend Height
m
Period
s
Dir
22/11:30pm 13.9 NW 14 16 1004.5 - 1.6 - - - - - - -
22/11:00pm 13.9 NW 15 17 1004.5 - 1.6 - - - - - - -
22/10:30pm 14.2 NW 14 18 1004.6 - 1.6 - - - - - - -
22/10:00pm 14.3 NW 14 18 1004.4 - 1.6 - - - - - - -
22/09:30pm 14.4 NW 14 17 1003.8 - 1.6 - - - - - - -
22/09:00pm 14.3 NNW 13 16 1003.5 - 1.6 - - - - - - -
22/08:30pm 14.6 NNW 15 18 1003.6 - 1.6 - - - - - - -
22/08:00pm 14.8 NNW 14 18 1003.4 - 1.6 - - - - - - -
22/07:30pm 14.6 NNW 12 17 1003.5 - 1.6 - - - - - - -
22/07:00pm 14.5 NNW 13 17 1003.5 - 1.6 - - - - - - -
22/06:30pm 14.6 NNW 15 19 1003.5 - 1.4 - - - - - - -
22/06:00pm 14.5 NNW 17 21 1003.4 - 1.4 Recent precip. - - - - - -
22/05:30pm 14.4 NNW 16 20 1003.5 - 1.2 - - - - - - -
22/05:00pm 14.4 NNW 20 28 1003.5 - 0.6 - - - - - - -
22/04:30pm 15.5 NNW 19 27 1003.4 - 0.6 - - - - - - -
22/04:00pm 15.0 NNW 23 32 1003.6 - 0.6 - - - - - - -
22/03:44pm 15.0 NNW 22 33 1003.7 - 0.6 - - - - - - -
22/03:30pm 15.0 NNW 22 27 1004.0 - 0.6 - - - - - - -
22/03:00pm 15.3 NW 17 21 1003.9 - 0.6 - - - - - - -
22/02:30pm 15.0 NNW 17 22 1004.3 - 0.6 - - - - - - -
22/02:00pm 15.8 NNW 19 24 1004.1 - 0.6 - - - - - - -
22/01:30pm 16.0 NW 21 25 1004.5 - 0.6 - - - - - - -
22/01:00pm 16.3 NNW 19 24 1004.6 - 0.6 - - - - - - -
22/12:30pm 15.6 NNW 17 22 1005.2 - 0.6 - - - - - - -
22/12:00pm 14.4 NNW 19 27 1005.3 - 0.6 - - - - - - -
22/11:30am 14.0 N 19 24 1005.7 - 0.6 - - - - - - -
22/11:16am 13.7 NNW 21 31 1005.8 - 0.6 - - - - - - -
22/11:00am 13.2 NNW 22 30 1006.0 - 0.6 - - - - - - -
22/10:46am 12.9 NNW 18 28 1006.1 - 0.6 - - - - - - -
22/10:30am 12.8 NNW 17 24 1006.3 - 0.4 - - - - - - -
22/10:00am 12.6 NNW 19 29 1006.2 - 0.2 - - - - - - -
22/09:58am 12.6 NNW 18 28 1006.3 - 0.2 - - - - - - -
22/09:30am 12.9 NNW 14 19 1006.3 - 0.0 - - - - - - -
22/09:00am 12.5 N 17 23 1006.3 - 3.2 - - - - - - -
22/08:30am 12.3 N 17 25 1006.2 - 3.2 - - - - - - -
22/08:00am 12.1 N 19 25 1006.3 - 3.2 - - - - - - -
22/07:30am 11.8 N 18 25 1006.3 - 3.2 - - - - - - -
22/07:00am 12.0 NNW 22 33 1006.2 - 2.4 - - - - - - -
22/06:33am 11.9 NNW 21 31 1006.2 - 1.8 - - - - - - -
22/06:30am 11.9 NNW 21 28 1006.2 - 1.8 - - - - - - -
22/06:03am 12.3 NNW 23 33 1006.3 - 0.8 - - - - - - -
22/06:00am 12.3 NNW 25 33 1006.3 - 0.6 Recent precip. - - - - - -
22/05:42am 12.9 NNW 27 37 1006.0 - 0.4 - - - - - - -
22/05:30am 12.9 NNW 29 37 1005.7 - 0.4 - - - - - - -
22/05:00am 13.2 NNW 22 32 1005.5 - 0.4 - - - - - - -
22/04:56am 13.2 NNW 22 32 1005.4 - 0.4 - - - - - - -

Other Formats:

Comma delimited format used in spreadsheet applications
http://www.bom.gov.au/fwo/IDT60701/IDT60701.95961.axf

JavaScript Object Notation format (JSON) in row-major order
http://www.bom.gov.au/fwo/IDT60701/IDT60701.95961.json